Time;durP1;ratioP1;P1;durP2;ratioP2;P2;SDS_P1;SDS_P2;PMS_P1;PMS_P2;Temp;Humidity;BMP_temperature;BMP_pressure;BME280_temperature;BME280_humidity;BME280_pressure;Samples;Min_cycle;Max_cycle;Signal;HPM_P1;HPM_P2
2023/05/15 00:00:05;;;;;;;;;;;;;;;18.41;47.39;101744.78;5091247;28;19917;-88
2023/05/15 00:02:33;;;;;;;;;;;;;;;18.44;47.41;101744.91;5091047;28;19916;-89
2023/05/15 00:04:59;;;;;;;;;;;;;;;18.38;47.38;101750.88;5064972;28;19913;-87
2023/05/15 00:07:24;;;;;;;;;;;;;;;18.25;47.81;101744.22;5072847;28;19919;-88
2023/05/15 00:09:49;;;;;;;;;;;;;;;18.40;47.57;101750.94;5073031;28;19984;-88
2023/05/15 00:12:15;;;;;;;;;;;;;;;18.37;47.53;101740.22;5043737;28;20474;-88
2023/05/15 00:14:40;;;;;;;;;;;;;;;18.29;47.71;101739.94;5060582;28;19946;-88
2023/05/15 00:17:06;;;;;;;;;;;;;;;18.35;47.50;101740.19;5059973;28;19916;-88
2023/05/15 00:19:32;;;;;;;;;;;;;;;18.28;47.83;101732.84;5073688;28;20317;-87
2023/05/15 00:21:57;;;;;;;;;;;;;;;18.27;47.77;101725.78;5072254;28;20029;-86
2023/05/15 00:24:22;;;;;;;;;;;;;;;18.28;47.73;101728.44;5067128;28;20007;-89
2023/05/15 00:26:48;;;;;;;;;;;;;;;18.34;47.59;101721.63;5076000;28;19935;-88
2023/05/15 00:29:13;;;;;;;;;;;;;;;18.35;47.46;101716.38;5067629;28;20420;-88
2023/05/15 00:31:39;;;;;;;;;;;;;;;18.31;47.55;101709.19;5076531;28;19912;-88
2023/05/15 00:34:04;;;;;;;;;;;;;;;18.36;47.38;101719.94;5060368;28;20686;-88
2023/05/15 00:36:30;;;;;;;;;;;;;;;18.34;47.55;101722.50;5046474;28;19920;-88
2023/05/15 00:38:55;;;;;;;;;;;;;;;18.42;47.36;101720.16;5078347;28;20360;-88
2023/05/15 00:41:21;;;;;;;;;;;;;;;18.34;47.46;101713.69;5076574;28;19916;-88
2023/05/15 00:43:48;;;;;;;;;;;;;;;18.38;47.29;101697.09;5070012;28;19919;-87
2023/05/15 00:46:14;;;;;;;;;;;;;;;18.39;47.13;101701.50;5050201;28;19931;-88
2023/05/15 00:48:39;;;;;;;;;;;;;;;18.35;47.49;101705.81;5052473;28;19917;-87
2023/05/15 00:51:05;;;;;;;;;;;;;;;18.36;47.55;101701.41;5076315;28;19916;-88
2023/05/15 00:53:30;;;;;;;;;;;;;;;18.37;47.38;101719.06;5076235;28;20389;-87
2023/05/15 00:55:57;;;;;;;;;;;;;;;18.35;47.47;101713.75;5059063;28;19916;-87
2023/05/15 00:58:22;;;;;;;;;;;;;;;18.34;47.52;101713.69;5069045;28;19916;-87
2023/05/15 01:00:48;;;;;;;;;;;;;;;18.28;47.30;101717.88;5076383;28;19919;-87
2023/05/15 01:03:33;;;;;;;;;;;;;;;18.33;47.45;101726.00;5078455;28;19961;-87
2023/05/15 01:05:58;;;;;;;;;;;;;;;18.27;47.59;101716.09;5094642;28;20434;-87
2023/05/15 01:08:30;;;;;;;;;;;;;;;18.32;47.23;101718.91;5048856;28;19912;-87
2023/05/15 01:10:55;;;;;;;;;;;;;;;18.34;47.41;101713.69;5090194;28;20381;-88
2023/05/15 01:13:21;;;;;;;;;;;;;;;18.39;47.24;101710.34;5059235;28;19923;-87
2023/05/15 01:15:47;;;;;;;;;;;;;;;18.38;47.43;101697.09;5040987;28;20353;-87
2023/05/15 01:18:13;;;;;;;;;;;;;;;18.36;47.38;101694.38;5063753;28;19913;-87
2023/05/15 01:20:59;;;;;;;;;;;;;;;18.34;47.20;101693.41;5075024;28;20454;-88
2023/05/15 01:23:45;;;;;;;;;;;;;;;18.35;47.15;101679.38;5093018;28;19918;-88
2023/05/15 01:26:16;;;;;;;;;;;;;;;18.30;47.42;101665.94;5052332;28;19912;-88
2023/05/15 01:28:44;;;;;;;;;;;;;;;18.36;47.27;101675.84;5056835;28;19959;-87
2023/05/15 01:31:12;;;;;;;;;;;;;;;18.36;47.12;101683.78;5072536;28;19917;-88
2023/05/15 01:33:39;;;;;;;;;;;;;;;18.35;47.29;101667.84;5072388;28;19913;-87
2023/05/15 01:36:10;;;;;;;;;;;;;;;18.35;47.08;101658.22;5072256;28;19913;-87
2023/05/15 01:38:36;;;;;;;;;;;;;;;18.36;47.12;101657.34;5093363;28;20328;-88
2023/05/15 01:41:04;;;;;;;;;;;;;;;18.33;47.23;101662.53;5092760;28;19916;-88
2023/05/15 01:43:31;;;;;;;;;;;;;;;18.25;47.49;101654.31;5093528;28;19912;-87
2023/05/15 01:45:56;;;;;;;;;;;;;;;18.34;47.37;101651.09;5075434;28;19922;-87
2023/05/15 01:48:21;;;;;;;;;;;;;;;18.39;46.87;101652.16;5092925;28;20007;-87
2023/05/15 01:50:47;;;;;;;;;;;;;;;18.34;47.19;101644.91;5075314;28;19912;-88
2023/05/15 01:53:12;;;;;;;;;;;;;;;18.35;47.20;101637.06;5058202;28;19912;-88
2023/05/15 01:55:38;;;;;;;;;;;;;;;18.31;47.11;101636.03;5075050;28;20011;-87
2023/05/15 01:58:03;;;;;;;;;;;;;;;18.30;47.26;101621.00;5058054;28;19934;-88
2023/05/15 02:00:28;;;;;;;;;;;;;;;18.32;47.16;101626.34;5073188;28;19919;-88
2023/05/15 02:02:54;;;;;;;;;;;;;;;18.27;47.34;101630.59;5056868;28;20366;-88
2023/05/15 02:05:19;;;;;;;;;;;;;;;18.31;47.20;101633.38;5074995;28;20007;-87
2023/05/15 02:07:45;;;;;;;;;;;;;;;18.35;47.14;101622.91;5074280;28;19922;-88
2023/05/15 02:10:11;;;;;;;;;;;;;;;18.30;47.29;101615.72;5074888;28;19916;-88
2023/05/15 02:12:37;;;;;;;;;;;;;;;18.39;46.95;101609.84;5058043;28;19916;-89
2023/05/15 02:15:03;;;;;;;;;;;;;;;18.40;47.05;101619.59;5057982;28;19919;-88
2023/05/15 02:17:28;;;;;;;;;;;;;;;18.33;47.19;101630.81;5074371;28;19986;-88
2023/05/15 02:19:54;;;;;;;;;;;;;;;18.37;46.77;101624.78;5074680;28;20003;-88
2023/05/15 02:22:19;;;;;;;;;;;;;;;18.25;47.23;101617.31;5074306;28;19935;-88
2023/05/15 02:24:45;;;;;;;;;;;;;;;18.24;47.34;101615.47;5062284;28;20417;-87
2023/05/15 02:27:19;;;;;;;;;;;;;;;18.25;47.18;101606.72;5071043;28;20699;-87
2023/05/15 02:29:55;;;;;;;;;;;;;;;18.33;47.05;101601.72;5074509;28;19912;-88
2023/05/15 02:32:20;;;;;;;;;;;;;;;18.25;47.36;101600.53;5092727;28;19977;-87
2023/05/15 02:35:04;;;;;;;;;;;;;;;18.25;47.21;101596.16;5091697;28;19916;-89
2023/05/15 02:37:31;;;;;;;;;;;;;;;18.31;47.12;101604.31;5092846;28;19912;-87
2023/05/15 02:39:58;;;;;;;;;;;;;;;18.24;47.29;101599.63;5044419;28;19920;-87
2023/05/15 02:42:25;;;;;;;;;;;;;;;18.36;47.15;101590.34;5066355;28;19996;-87
2023/05/15 02:44:50;;;;;;;;;;;;;;;18.31;47.06;101593.72;5072863;28;19913;-88
2023/05/15 02:47:18;;;;;;;;;;;;;;;18.30;47.09;101594.56;5073960;28;20007;-87
2023/05/15 02:49:43;;;;;;;;;;;;;;;18.46;46.50;101600.41;5074032;28;19912;-88
2023/05/15 02:52:09;;;;;;;;;;;;;;;18.31;46.95;101600.75;5074265;28;19961;-88
2023/05/15 02:54:34;;;;;;;;;;;;;;;18.31;46.88;101604.31;5043724;28;20628;-88
2023/05/15 02:57:00;;;;;;;;;;;;;;;18.35;46.88;101607.97;5092037;28;19916;-88
2023/05/15 02:59:25;;;;;;;;;;;;;;;18.52;46.59;101605.91;5072455;28;20405;-89
2023/05/15 03:01:51;;;;;;;;;;;;;;;18.33;46.86;101601.72;5070680;28;19924;-88
2023/05/15 03:04:16;;;;;;;;;;;;;;;18.33;46.86;101601.72;5091456;28;19916;-88
2023/05/15 03:06:43;;;;;;;;;;;;;;;18.25;47.10;101603.19;5072005;28;20400;-88
2023/05/15 03:09:08;;;;;;;;;;;;;;;18.37;46.95;101602.72;5053483;28;19923;-88
2023/05/15 03:11:34;;;;;;;;;;;;;;;18.28;47.05;101601.53;5086110;28;20343;-87
2023/05/15 03:13:59;;;;;;;;;;;;;;;18.34;46.99;101597.31;5075639;28;19959;-88
2023/05/15 03:16:25;;;;;;;;;;;;;;;18.29;46.83;101587.47;5073486;28;20278;-88
2023/05/15 03:18:50;;;;;;;;;;;;;;;18.19;47.29;101593.28;5056416;28;20309;-87
2023/05/15 03:21:16;;;;;;;;;;;;;;;18.25;47.08;101598.78;5070322;28;19950;-88
2023/05/15 03:23:41;;;;;;;;;;;;;;;18.27;46.92;101591.81;5068401;28;19946;-87
2023/05/15 03:26:07;;;;;;;;;;;;;;;18.25;46.84;101585.56;5061908;28;19921;-87
2023/05/15 03:28:32;;;;;;;;;;;;;;;18.37;46.75;101584.19;5069402;28;20377;-87
2023/05/15 03:30:58;;;;;;;;;;;;;;;18.39;46.53;101591.31;5073269;28;19916;-88
2023/05/15 03:33:23;;;;;;;;;;;;;;;18.20;47.02;101581.88;5059959;28;19911;-88
2023/05/15 03:35:51;;;;;;;;;;;;;;;18.27;46.94;101586.53;5091528;28;19913;-88
2023/05/15 03:38:16;;;;;;;;;;;;;;;18.26;46.80;101589.09;5089621;28;19920;-89
2023/05/15 03:40:42;;;;;;;;;;;;;;;18.35;46.88;101584.16;5073855;28;19912;-89
2023/05/15 03:43:07;;;;;;;;;;;;;;;18.35;46.91;101589.44;5058425;28;20014;-87
2023/05/15 03:45:33;;;;;;;;;;;;;;;18.30;46.75;101606.88;5053065;28;19912;-88
2023/05/15 03:47:59;;;;;;;;;;;;;;;18.28;46.86;101604.16;5067326;28;19928;-90
2023/05/15 03:50:24;;;;;;;;;;;;;;;18.32;46.72;101605.19;5077877;28;19916;-89
2023/05/15 03:52:50;;;;;;;;;;;;;;;18.32;46.70;101589.31;5051735;28;20393;-88
2023/05/15 03:55:15;;;;;;;;;;;;;;;18.30;46.77;101599.84;5088133;28;19924;-89
2023/05/15 03:57:41;;;;;;;;;;;;;;;18.31;46.60;101600.75;5058927;28;20384;-88
2023/05/15 04:00:09;;;;;;;;;;;;;;;18.29;46.73;101598.06;5071887;28;20311;-91
2023/05/15 04:02:35;;;;;;;;;;;;;;;18.25;46.86;101579.38;5055013;28;19920;-87
2023/05/15 04:05:02;;;;;;;;;;;;;;;18.29;46.75;101586.59;5067296;28;20510;-88
2023/05/15 04:07:28;;;;;;;;;;;;;;;18.30;46.71;101588.38;5075591;28;19947;-84
2023/05/15 04:09:54;;;;;;;;;;;;;;;18.21;46.86;101594.22;5084973;28;19967;-84
2023/05/15 04:12:19;;;;;;;;;;;;;;;18.29;46.84;101603.34;5060293;28;19963;-84
2023/05/15 04:14:44;;;;;;;;;;;;;;;18.36;46.62;101615.03;5058209;28;19917;-83
2023/05/15 04:17:10;;;;;;;;;;;;;;;18.36;46.51;101617.69;5089041;28;20377;-84
2023/05/15 04:19:35;;;;;;;;;;;;;;;18.30;46.66;101610.41;5088779;28;19928;-83
2023/05/15 04:22:01;;;;;;;;;;;;;;;18.35;46.42;101610.63;5081770;28;20374;-84
2023/05/15 04:24:26;;;;;;;;;;;;;;;18.46;46.37;101616.28;5089231;28;19927;-84
2023/05/15 04:26:52;;;;;;;;;;;;;;;18.45;46.38;101611.81;5066348;28;20412;-83
2023/05/15 04:29:17;;;;;;;;;;;;;;;18.33;46.62;101621.94;5070708;28;19923;-83
2023/05/15 04:31:43;;;;;;;;;;;;;;;18.44;46.37;101623.25;5089325;28;20404;-84
2023/05/15 04:34:08;;;;;;;;;;;;;;;18.46;46.32;101608.34;5065185;28;19916;-85
2023/05/15 04:36:34;;;;;;;;;;;;;;;18.35;46.46;101613.25;5070562;28;19920;-85
2023/05/15 04:38:59;;;;;;;;;;;;;;;18.22;46.66;101625.09;5053158;28;20282;-84
2023/05/15 04:41:25;;;;;;;;;;;;;;;18.39;46.43;101625.72;5050677;28;19924;-85
2023/05/15 04:43:51;;;;;;;;;;;;;;;18.54;46.05;101619.16;5061418;28;19920;-84
2023/05/15 04:46:16;;;;;;;;;;;;;;;18.43;46.26;101624.09;5083289;28;19924;-84
2023/05/15 04:48:42;;;;;;;;;;;;;;;18.35;46.34;101615.91;5063794;28;19923;-85
2023/05/15 04:51:07;;;;;;;;;;;;;;;18.34;46.63;101614.09;5061848;28;19922;-84
2023/05/15 04:53:33;;;;;;;;;;;;;;;18.24;46.62;101607.56;5085706;28;20305;-84
2023/05/15 04:55:59;;;;;;;;;;;;;;;18.25;46.60;101606.72;5065080;28;20422;-86
2023/05/15 04:58:27;;;;;;;;;;;;;;;18.38;46.38;101610.69;5069572;28;19924;-85
2023/05/15 05:00:53;;;;;;;;;;;;;;;18.33;46.57;101614.03;5073532;28;19916;-86
2023/05/15 05:03:18;;;;;;;;;;;;;;;18.31;46.33;101617.53;5066012;28;20479;-86
2023/05/15 05:05:44;;;;;;;;;;;;;;;18.33;46.44;101614.94;5056022;28;19920;-88
2023/05/15 05:08:09;;;;;;;;;;;;;;;18.33;46.43;101611.38;5068094;28;20374;-85
2023/05/15 05:10:35;;;;;;;;;;;;;;;18.25;46.63;101612.00;5083126;28;19995;-84
2023/05/15 05:13:00;;;;;;;;;;;;;;;18.47;46.32;101610.13;5090830;28;19920;-84
2023/05/15 05:15:26;;;;;;;;;;;;;;;18.31;46.44;101606.94;5063821;28;19931;-84
2023/05/15 05:17:51;;;;;;;;;;;;;;;18.33;46.46;101606.09;5070703;28;20007;-83
2023/05/15 05:20:17;;;;;;;;;;;;;;;18.31;46.45;101612.22;5069712;28;19926;-84
2023/05/15 05:22:43;;;;;;;;;;;;;;;18.20;46.65;101605.66;5069917;28;20490;-83
2023/05/15 05:25:08;;;;;;;;;;;;;;;18.33;46.36;101608.72;5067535;28;19917;-84
2023/05/15 05:27:34;;;;;;;;;;;;;;;18.26;46.50;101615.53;5053763;28;19916;-85
2023/05/15 05:29:59;;;;;;;;;;;;;;;18.29;46.46;101606.00;5065716;28;19916;-84
2023/05/15 05:32:25;;;;;;;;;;;;;;;18.31;46.42;101608.69;5055513;28;19912;-86
2023/05/15 05:34:50;;;;;;;;;;;;;;;18.20;46.66;101600.38;5083043;28;19972;-86
2023/05/15 05:37:15;;;;;;;;;;;;;;;18.31;46.47;101601.66;5082761;28;19943;-87
2023/05/15 05:39:41;;;;;;;;;;;;;;;18.26;46.50;101607.63;5064437;28;19935;-87
2023/05/15 05:42:06;;;;;;;;;;;;;;;18.33;46.40;101614.94;5076559;28;19943;-87
2023/05/15 05:44:33;;;;;;;;;;;;;;;18.36;46.16;101615.03;5068023;28;19912;-86
2023/05/15 05:46:58;;;;;;;;;;;;;;;18.33;46.34;101606.09;5058280;28;20294;-87
2023/05/15 05:49:24;;;;;;;;;;;;;;;18.31;46.35;101600.75;5092003;28;19919;-87
2023/05/15 05:51:49;;;;;;;;;;;;;;;18.32;46.30;101586.69;5053965;28;19987;-86
2023/05/15 05:54:17;;;;;;;;;;;;;;;18.40;46.13;101584.31;5086029;28;20305;-85
2023/05/15 05:56:42;;;;;;;;;;;;;;;18.36;46.37;101585.06;5077035;28;19912;-86
2023/05/15 05:59:08;;;;;;;;;;;;;;;18.45;46.13;101580.06;5061653;28;19924;-85
2023/05/15 06:01:34;;;;;;;;;;;;;;;18.45;46.16;101590.66;5076838;28;19912;-85
2023/05/15 06:04:00;;;;;;;;;;;;;;;18.47;45.96;101603.09;5075883;28;19912;-87
2023/05/15 06:06:25;;;;;;;;;;;;;;;18.43;46.12;101605.56;5070175;28;19948;-87
2023/05/15 06:08:51;;;;;;;;;;;;;;;18.51;46.06;101610.28;5092686;28;19973;-87
2023/05/15 06:11:16;;;;;;;;;;;;;;;18.54;45.72;101620.06;5097426;28;19927;-84
2023/05/15 06:13:42;;;;;;;;;;;;;;;18.34;46.09;101613.19;5095715;28;20474;-88
2023/05/15 06:16:07;;;;;;;;;;;;;;;18.42;46.23;101604.69;5092740;28;19913;-87
2023/05/15 06:18:33;;;;;;;;;;;;;;;18.39;46.09;101598.38;5061161;28;19924;-88
2023/05/15 06:20:59;;;;;;;;;;;;;;;18.43;46.11;101587.94;5092172;28;20337;-87
2023/05/15 06:23:25;;;;;;;;;;;;;;;18.41;46.10;101587.00;5073975;28;19912;-87
2023/05/15 06:25:51;;;;;;;;;;;;;;;18.41;46.06;101588.75;5081464;28;19916;-87
2023/05/15 06:28:17;;;;;;;;;;;;;;;18.47;46.03;101581.94;5059722;28;19970;-88
2023/05/15 06:30:42;;;;;;;;;;;;;;;18.44;46.18;101594.16;5070640;28;20034;-88
2023/05/15 06:33:08;;;;;;;;;;;;;;;18.50;45.87;101603.22;5073024;28;19913;-87
2023/05/15 06:35:33;;;;;;;;;;;;;;;18.36;46.24;101608.84;5065634;28;19919;-87
2023/05/15 06:37:59;;;;;;;;;;;;;;;18.45;45.98;101611.81;5087595;28;19912;-87
2023/05/15 06:40:24;;;;;;;;;;;;;;;18.40;46.17;101610.78;5091846;28;19923;-85
2023/05/15 06:42:49;;;;;;;;;;;;;;;18.24;46.38;101594.34;5092254;28;19934;-85
2023/05/15 06:45:15;;;;;;;;;;;;;;;18.18;46.60;101606.44;5092280;28;20404;-85
2023/05/15 06:47:40;;;;;;;;;;;;;;;18.27;46.46;101602.38;5091860;28;20015;-85
2023/05/15 06:50:06;;;;;;;;;;;;;;;18.47;45.90;101588.97;5073882;28;20384;-85
2023/05/15 06:52:31;;;;;;;;;;;;;;;18.40;46.16;101594.91;5091952;28;19916;-85
2023/05/15 06:54:57;;;;;;;;;;;;;;;18.26;46.45;101602.31;5073826;28;19966;-84
2023/05/15 06:57:22;;;;;;;;;;;;;;;18.40;46.24;101600.19;5061462;28;19920;-84
2023/05/15 06:59:48;;;;;;;;;;;;;;;18.43;46.13;101602.94;5069357;28;19970;-84
2023/05/15 07:02:13;;;;;;;;;;;;;;;18.28;46.56;101601.53;5070416;28;19920;-84
2023/05/15 07:04:38;;;;;;;;;;;;;;;18.35;46.45;101592.09;5053577;28;20294;-84
2023/05/15 07:07:05;;;;;;;;;;;;;;;18.34;46.39;101594.69;5066566;28;19998;-84
2023/05/15 07:09:30;;;;;;;;;;;;;;;18.42;46.26;101590.56;5073807;28;20394;-84
2023/05/15 07:11:55;;;;;;;;;;;;;;;18.41;46.17;101588.75;5073564;28;19955;-84
2023/05/15 07:14:21;;;;;;;;;;;;;;;18.38;46.30;101602.78;5067169;28;20377;-84
2023/05/15 07:16:46;;;;;;;;;;;;;;;18.43;46.31;101601.19;5070056;28;20404;-84
2023/05/15 07:19:12;;;;;;;;;;;;;;;18.48;46.20;101596.06;5070006;28;20404;-84
2023/05/15 07:21:38;;;;;;;;;;;;;;;18.49;46.07;101585.53;5069352;28;19920;-83
2023/05/15 07:24:03;;;;;;;;;;;;;;;18.51;45.94;101589.13;5073409;28;19939;-85
2023/05/15 07:26:29;;;;;;;;;;;;;;;18.42;46.10;101578.22;5091550;28;19912;-84
2023/05/15 07:28:55;;;;;;;;;;;;;;;18.31;46.65;101582.25;5073603;28;19919;-84
2023/05/15 07:31:20;;;;;;;;;;;;;;;18.46;46.37;101577.50;5089567;28;19912;-84
2023/05/15 07:33:46;;;;;;;;;;;;;;;18.53;46.17;101583.88;5091518;28;19920;-84
2023/05/15 07:36:11;;;;;;;;;;;;;;;18.48;46.17;101585.50;5091235;28;19919;-85
2023/05/15 07:38:36;;;;;;;;;;;;;;;18.49;46.21;101577.59;5091170;28;19919;-85
2023/05/15 07:41:02;;;;;;;;;;;;;;;18.58;46.07;101573.47;5073386;28;19969;-84
2023/05/15 07:43:27;;;;;;;;;;;;;;;18.48;46.33;101574.91;5039267;28;20440;-85
2023/05/15 07:45:53;;;;;;;;;;;;;;;18.50;46.24;101570.56;5060462;28;20003;-84
2023/05/15 07:48:18;;;;;;;;;;;;;;;18.61;45.93;101565.66;5088372;28;19912;-84
2023/05/15 07:50:45;;;;;;;;;;;;;;;18.56;46.19;101561.94;5073245;28;19981;-84
2023/05/15 07:53:11;;;;;;;;;;;;;;;18.62;45.94;101570.06;5055562;28;19912;-84
2023/05/15 07:55:36;;;;;;;;;;;;;;;18.57;45.92;101576.97;5082115;28;19920;-84
2023/05/15 07:58:01;;;;;;;;;;;;;;;18.55;45.93;101576.03;5072970;28;19916;-84
2023/05/15 08:00:27;;;;;;;;;;;;;;;18.55;46.04;101571.63;5073232;28;19939;-84
2023/05/15 08:02:52;;;;;;;;;;;;;;;18.51;46.17;101585.59;5054959;28;20309;-84
2023/05/15 08:05:18;;;;;;;;;;;;;;;18.44;46.34;101579.19;5069896;28;19912;-84
2023/05/15 08:07:43;;;;;;;;;;;;;;;18.47;46.24;101579.28;5088655;28;19966;-84
2023/05/15 08:10:09;;;;;;;;;;;;;;;18.53;46.13;101573.31;5091214;28;20324;-84
2023/05/15 08:12:35;;;;;;;;;;;;;;;18.52;46.20;101572.41;5054746;28;19913;-84
2023/05/15 08:15:01;;;;;;;;;;;;;;;18.59;45.96;101576.16;5060995;28;20377;-85
2023/05/15 08:17:26;;;;;;;;;;;;;;;18.57;46.00;101569.94;5069004;28;19990;-84
2023/05/15 08:19:52;;;;;;;;;;;;;;;18.55;46.00;101571.63;5069041;28;19940;-85
2023/05/15 08:22:17;;;;;;;;;;;;;;;18.44;46.42;101573.91;5089116;28;20308;-85
2023/05/15 08:24:43;;;;;;;;;;;;;;;18.58;45.95;101568.16;5090450;28;19916;-85
2023/05/15 08:27:09;;;;;;;;;;;;;;;18.62;45.83;101567.44;5072836;28;19916;-85
2023/05/15 08:29:34;;;;;;;;;;;;;;;18.60;45.87;101551.50;5060382;28;19920;-84
2023/05/15 08:32:00;;;;;;;;;;;;;;;18.71;45.61;101538.63;5089970;28;19912;-85
2023/05/15 08:34:25;;;;;;;;;;;;;;;18.67;45.74;101542.06;5075467;28;20293;-84
2023/05/15 08:36:51;;;;;;;;;;;;;;;18.78;45.61;101545.03;5059204;28;19955;-84
2023/05/15 08:39:17;;;;;;;;;;;;;;;18.67;45.72;101555.28;5094537;28;20015;-85
2023/05/15 08:41:45;;;;;;;;;;;;;;;18.69;45.71;101554.47;5094430;28;19912;-84
2023/05/15 08:44:10;;;;;;;;;;;;;;;18.70;45.72;101555.38;5066336;28;19912;-85
2023/05/15 08:46:36;;;;;;;;;;;;;;;18.59;45.95;101557.66;5076216;28;19935;-84
2023/05/15 08:49:02;;;;;;;;;;;;;;;18.69;45.99;101562.41;5076503;28;20369;-84
2023/05/15 08:51:28;;;;;;;;;;;;;;;18.76;45.79;101558.22;5076034;28;20425;-85
2023/05/15 08:53:53;;;;;;;;;;;;;;;18.84;45.69;101559.41;5076466;28;19953;-84
2023/05/15 08:56:18;;;;;;;;;;;;;;;18.90;45.44;101550.75;5093961;28;19912;-84
2023/05/15 08:58:44;;;;;;;;;;;;;;;18.76;45.60;101555.56;5065869;28;20305;-85
2023/05/15 09:01:10;;;;;;;;;;;;;;;18.81;45.60;101553.09;5055951;28;19919;-84
2023/05/15 09:03:35;;;;;;;;;;;;;;;18.78;45.62;101555.63;5076066;28;19919;-85
2023/05/15 09:06:01;;;;;;;;;;;;;;;18.80;45.85;101552.22;5055865;28;19912;-85
2023/05/15 09:08:26;;;;;;;;;;;;;;;18.80;45.47;101553.97;5066980;28;20354;-84
2023/05/15 09:10:52;;;;;;;;;;;;;;;18.88;45.65;101549.78;5041731;28;19919;-84
2023/05/15 09:13:17;;;;;;;;;;;;;;;18.84;45.58;101551.47;5075771;28;19914;-85
2023/05/15 09:15:44;;;;;;;;;;;;;;;18.83;45.72;101533.78;5058911;28;19947;-85
2023/05/15 09:18:09;;;;;;;;;;;;;;;18.90;45.59;101543.72;5064519;28;20003;-85
2023/05/15 09:20:35;;;;;;;;;;;;;;;18.87;45.69;101545.38;5070299;28;20654;-84
2023/05/15 09:23:01;;;;;;;;;;;;;;;18.86;45.62;101543.59;5085204;28;19965;-84
2023/05/15 09:25:37;;;;;;;;;;;;;;;18.94;45.46;101539.41;5093394;28;19920;-84
2023/05/15 09:28:03;;;;;;;;;;;;;;;18.87;45.49;101538.31;5075445;28;19912;-84
2023/05/15 09:30:29;;;;;;;;;;;;;;;18.89;45.77;101536.63;5075667;28;19942;-83
2023/05/15 09:32:59;;;;;;;;;;;;;;;18.87;45.66;101537.44;5093610;28;20389;-82
2023/05/15 09:35:29;;;;;;;;;;;;;;;18.88;45.61;101540.13;5093685;28;20454;-84
2023/05/15 09:38:01;;;;;;;;;;;;;;;18.90;45.60;101542.81;5075426;28;20442;-84
2023/05/15 09:40:30;;;;;;;;;;;;;;;18.90;45.58;101540.16;5056696;28;20567;-84
2023/05/15 09:42:56;;;;;;;;;;;;;;;19.01;45.38;101535.25;5085817;28;19916;-84
2023/05/15 09:45:24;;;;;;;;;;;;;;;18.97;45.63;101522.75;5075082;28;19974;-82
2023/05/15 09:47:49;;;;;;;;;;;;;;;19.02;45.52;101531.72;5062045;28;20405;-84
2023/05/15 09:50:19;;;;;;;;;;;;;;;18.98;45.81;101532.47;5072506;28;20086;-82
2023/05/15 09:52:44;;;;;;;;;;;;;;;19.01;45.75;101530.84;5064444;28;19920;-82
2023/05/15 09:55:15;;;;;;;;;;;;;;;18.98;45.51;101524.53;5088526;28;20646;-83
2023/05/15 09:57:41;;;;;;;;;;;;;;;18.99;45.40;101535.19;5091376;28;19973;-82
2023/05/15 10:00:10;;;;;;;;;;;;;;;19.10;45.36;101531.13;5089019;28;20602;-82
2023/05/15 10:02:40;;;;;;;;;;;;;;;19.10;45.37;101528.47;5057931;28;19974;-82
2023/05/15 10:05:06;;;;;;;;;;;;;;;18.98;45.79;101521.88;5061571;28;20388;-82
2023/05/15 10:07:32;;;;;;;;;;;;;;;19.01;45.55;101532.59;5081625;28;19973;-82
2023/05/15 10:09:58;;;;;;;;;;;;;;;19.01;45.58;101528.19;5087422;28;19916;-82
2023/05/15 10:12:24;;;;;;;;;;;;;;;19.04;45.51;101522.09;5090989;28;20415;-82
2023/05/15 10:14:50;;;;;;;;;;;;;;;19.11;45.33;101522.34;5073349;28;19916;-82
2023/05/15 10:17:15;;;;;;;;;;;;;;;18.98;45.60;101528.06;5066301;28;20502;-82
2023/05/15 10:19:40;;;;;;;;;;;;;;;19.13;45.36;101514.41;5090637;28;19962;-82
2023/05/15 10:22:06;;;;;;;;;;;;;;;19.09;45.20;101512.53;5072388;28;20401;-82
2023/05/15 10:24:31;;;;;;;;;;;;;;;19.07;45.26;101516.88;5090713;28;19973;-82
2023/05/15 10:26:57;;;;;;;;;;;;;;;19.02;45.41;101518.50;5072075;28;19958;-82
2023/05/15 10:29:24;;;;;;;;;;;;;;;19.08;45.33;101519.56;5063596;28;20326;-82
2023/05/15 10:31:50;;;;;;;;;;;;;;;19.12;45.30;101512.63;5081136;28;20030;-82
2023/05/15 10:34:16;;;;;;;;;;;;;;;19.02;45.44;101513.19;5082221;28;19938;-82
2023/05/15 10:36:41;;;;;;;;;;;;;;;19.04;45.55;101509.75;5055177;28;19920;-82
2023/05/15 10:39:07;;;;;;;;;;;;;;;19.04;45.48;101517.69;5060518;28;21101;-82
2023/05/15 10:41:34;;;;;;;;;;;;;;;19.03;45.57;101510.59;5068124;28;20397;-82
2023/05/15 10:44:00;;;;;;;;;;;;;;;19.11;45.26;101521.41;5088887;28;20007;-82
2023/05/15 10:46:26;;;;;;;;;;;;;;;19.18;45.19;101514.59;5069616;28;20003;-82
2023/05/15 10:48:51;;;;;;;;;;;;;;;19.10;45.36;101520.53;5087904;28;19924;-82
2023/05/15 10:51:18;;;;;;;;;;;;;;;19.09;45.48;101518.75;5089495;28;19919;-82
2023/05/15 10:53:43;;;;;;;;;;;;;;;19.14;45.33;101516.22;5090554;28;19916;-82
2023/05/15 10:56:13;;;;;;;;;;;;;;;19.21;45.11;101518.19;5065145;28;20011;-82
2023/05/15 10:58:39;;;;;;;;;;;;;;;19.08;45.56;101516.94;5057603;28;19916;-82
2023/05/15 11:01:05;;;;;;;;;;;;;;;19.17;45.39;101507.47;5070187;28;20362;-82
2023/05/15 11:03:37;;;;;;;;;;;;;;;19.18;45.23;101498.69;5072930;28;19927;-82
2023/05/15 11:06:10;;;;;;;;;;;;;;;19.17;45.44;101503.06;5054054;28;19986;-82
2023/05/15 11:08:38;;;;;;;;;;;;;;;19.19;45.24;101505.78;5068280;28;20011;-82
2023/05/15 11:11:03;;;;;;;;;;;;;;;19.20;45.33;101502.25;5087054;28;19990;-83
2023/05/15 11:13:48;;;;;;;;;;;;;;;19.21;45.23;101499.66;5066417;28;20345;-83
2023/05/15 11:16:38;;;;;;;;;;;;;;;19.19;45.52;101498.72;5059244;28;19917;-82
2023/05/15 11:19:10;;;;;;;;;;;;;;;19.18;47.15;101491.66;5069365;28;19927;-84
2023/05/15 11:21:38;;;;;;;;;;;;;;;19.24;47.13;101494.50;5072256;28;19959;-85
2023/05/15 11:24:04;;;;;;;;;;;;;;;19.31;46.53;101484.97;5065043;28;19913;-85
2023/05/15 11:26:32;;;;;;;;;;;;;;;19.32;46.18;101479.72;5087779;28;19916;-84
2023/05/15 11:28:57;;;;;;;;;;;;;;;19.33;46.07;101481.50;5064365;28;19920;-86
2023/05/15 11:31:28;;;;;;;;;;;;;;;19.29;45.90;101482.25;5072181;28;19920;-85
2023/05/15 11:33:54;;;;;;;;;;;;;;;19.32;45.62;101479.72;5085829;28;19923;-86
2023/05/15 11:36:22;;;;;;;;;;;;;;;19.40;45.64;101482.56;5087647;28;19915;-85
2023/05/15 11:38:47;;;;;;;;;;;;;;;19.40;45.42;101479.03;5054632;28;19928;-85
2023/05/15 11:41:17;;;;;;;;;;;;;;;19.37;45.39;101486.88;5072493;28;20449;-86
2023/05/15 11:43:43;;;;;;;;;;;;;;;19.38;45.56;101481.63;5091593;28;19912;-82
2023/05/15 11:46:08;;;;;;;;;;;;;;;19.38;45.50;101473.69;5069573;28;19916;-82
2023/05/15 11:48:46;;;;;;;;;;;;;;;19.40;45.42;101476.41;5079508;28;20400;-82
2023/05/15 11:51:14;;;;;;;;;;;;;;;19.35;45.56;101480.66;5080667;28;19927;-82
2023/05/15 11:53:40;;;;;;;;;;;;;;;19.52;45.13;101476.75;5083121;28;20376;-82
2023/05/15 11:56:06;;;;;;;;;;;;;;;19.42;45.40;101462.34;5086749;28;19942;-81
2023/05/15 11:58:31;;;;;;;;;;;;;;;19.47;45.19;101458.09;5078304;28;20618;-83
2023/05/15 12:00:56;;;;;;;;;;;;;;;19.46;45.25;101461.56;5084670;28;19924;-83
2023/05/15 12:03:23;;;;;;;;;;;;;;;19.43;45.72;101452.63;5088953;28;20058;-83
2023/05/15 12:05:48;;;;;;;;;;;;;;;19.37;47.27;101448.06;5087052;28;20400;-83
2023/05/15 12:08:14;;;;;;;;;;;;;;;19.40;47.99;101449.91;5056956;28;19912;-82
2023/05/15 12:10:41;;;;;;;;;;;;;;;19.47;47.52;101449.22;5093337;28;19919;-82
2023/05/15 12:13:07;;;;;;;;;;;;;;;19.48;47.06;101446.63;5093995;28;19920;-82
2023/05/15 12:15:35;;;;;;;;;;;;;;;19.57;46.35;101453.91;5088837;28;20474;-83
2023/05/15 12:18:02;;;;;;;;;;;;;;;19.53;46.39;101450.28;5070692;28;19920;-83
2023/05/15 12:20:28;;;;;;;;;;;;;;;19.53;46.23;101447.63;5068943;28;19920;-83
2023/05/15 12:22:53;;;;;;;;;;;;;;;19.53;45.94;101447.63;5061633;28;19923;-83
2023/05/15 12:25:19;;;;;;;;;;;;;;;19.61;45.91;101441.66;5069206;28;19916;-84
2023/05/15 12:27:44;;;;;;;;;;;;;;;19.63;45.78;101448.81;5057241;28;19922;-84
2023/05/15 12:30:10;;;;;;;;;;;;;;;19.58;45.77;101445.13;5092719;28;19974;-85